Beatty, Nevada Weather observations

Data are for observation ending at time listed.
 Day   Time    Ave.   Ave.  Ave.  Vector   Max.   Stn.    Total    Solar   Ave.  
  of    of     Air    Rel.  Wind   Wind    Wind   Baro.  Precip.   Rad.    Soil  
Year   Day     Temp.  Hum.  Speed  Dir.    Gust   Pres.                    Temp. 
2014   (PST)    F      %     mph   deg.    mph     mb.     in.     W/m2     F   
------------------------------------------------------------------------------
 240   10:30   91.0    11    3.2   205      7.2   903.6    0.00     696    81.8
 240   10:40   91.2    11    3.0   218      7.7   903.5    0.00     707    81.8
 240   10:50   91.0    11    4.6   207      8.8   903.4    0.00     716    81.8
 240   11:00   91.6    11    4.9   205      9.9   903.2    0.00     724    81.8
 240   11:10   91.7    10    4.2   214      8.8   903.1    0.00     730    81.8
 240   11:20   92.2    10    6.0   208     10.9   903.0    0.00     735    81.7
 240   11:30   93.3    10    4.3   204     10.7   902.8    0.00     738    81.7
 240   11:40   92.7    10    5.4   210     11.8   902.6    0.00     742    81.7
 240   11:50   93.6    10    5.8   202     11.7   902.5    0.00     742    81.7
 240   12:00   93.4    10    5.8   195     11.7   902.4    0.00     741    81.8
 240   12:10   93.8    10    5.0   165      9.4   902.3    0.00     740    81.8
 240   12:20   94.6    10    5.9   167     11.0   902.1    0.00     737    81.9
 240   12:30   94.9    10    5.8   194     11.2   902.0    0.00     732    81.9
 240   12:40   95.0    10    4.5   197     11.5   901.9    0.00     730    82.0
 240   12:50   95.3    10    4.6   184     10.7   901.8    0.00     723    82.0
 240   13:00   95.9    10    3.3   191     10.1   901.6    0.00     715    82.1
 240   13:10   96.4     9    3.9   186     12.0   901.4    0.00     704    82.2
 240   13:20   96.2     9    4.4   153      8.6   901.2    0.00     695    82.3
 240   13:30   95.0     9    4.0   175      9.8   901.1    0.00     684    82.3
 240   13:40   94.9    10    3.4   238     11.7   900.9    0.00     668    82.4
 240   13:50   94.6    10    5.7   196     11.4   900.7    0.00     557    82.5
 240   14:00   95.8     9    6.3   186     13.6   900.5    0.00      84    82.6
 240   14:10   95.7     9    6.4   213     15.9   900.3    0.00     188    82.7
 240   14:20   95.6     9    9.0   213     15.8   900.3    0.00     526    82.8
 240   14:30   95.6     9    5.2   201     14.0   900.3    0.00     581    82.9
 240   14:40   95.3    10    5.8   224     12.5   900.1    0.00     561    83.0
 240   14:50   94.4    10    4.2   226     11.8   900.0    0.00     540    83.2
 240   15:00   95.0     9    6.5   178     11.7   899.9    0.00     500    83.2
 240   15:10   94.7     9    7.6   205     13.1   899.8    0.00     441    83.3
 240   15:20   94.3     9    6.5   184     10.7   899.7    0.00     159    83.4
 240   15:30   94.5     9    4.9   189     10.7   899.6    0.00      39    83.5
 240   15:40   94.5     9    4.1   208      9.0   899.5    0.00      65    83.6
 240   15:50   94.9     9    2.9   196      8.2   899.4    0.00      61    83.7
 240   16:00   94.9     9    6.0   212     12.0   899.3    0.00      29    83.8
 240   16:10   95.0     9    4.9   192      9.0   899.3    0.00      46    83.9
 240   16:20   95.7     9    2.5   174      7.7   899.2    0.00      35    84.0
 240   16:30   95.6     9    6.0   218     11.8   899.1    0.00     142    84.1
 240   16:40   95.5     9    4.7   191      9.9   899.1    0.00     219    84.2
 240   16:50   96.1     9    4.5   181     10.1   899.1    0.00     214    84.3
 240   17:00   96.1     9    4.4   161      9.9   899.0    0.00     199    84.3
 240   17:10   95.5     9    3.9   230      9.6   899.0    0.00     171    84.4
 240   17:20   95.4     9    4.4   213      8.3   898.9    0.00     145    84.5
 240   17:30   94.9     9    4.1   224      7.2   898.8    0.00     119    84.6
 240   17:40   95.0     9    3.6   222      6.6   898.8    0.00      94    84.6
 240   17:50   94.2     9    3.4   223      7.0   898.8    0.00      64    84.7
 240   18:00   93.0    10    2.1   239      5.6   898.8    0.00      15    84.7
 240   18:10   91.1    10    2.6   225      5.6   898.8    0.00      10    84.8
 240   18:20   90.7    10    4.0   222      8.8   898.8    0.00       6    84.8
 240   18:30   90.7    10    3.4   229      6.4   898.8    0.00       3    84.8
 240   18:40   90.3    10    2.9   227      6.6   899.0    0.00       0    84.9
 240   18:50   89.3    11    2.7   226      4.7   899.0    0.00       0    84.9
 240   19:00   88.6    11    2.2   236      4.4   899.1    0.00       0    85.0
 240   19:10   87.4    12    1.4   235      2.7   899.1    0.00       0    85.0
 240   19:20   86.1    12    1.2   215      2.3   899.2    0.00       0    85.0
 240   19:30   85.5    12    1.3   229      3.5   899.3    0.00       0    85.1
 240   19:40   83.0    14    0.5   158      5.2   899.4    0.00       0    85.1
 240   19:50   83.7    13    2.0   181      4.3   899.5    0.00       0    85.1
 240   20:00   85.0    12    3.0   165      5.9   899.6    0.00       0    85.1
 240   20:10   83.4    13    1.0   236      2.0   899.6    0.00       0    85.1
 240   20:20   81.6    15    0.7   283      1.3   899.6    0.00       0    85.2
 240   20:30   80.6    16    0.1   262      1.1   899.7    0.00       0    85.2
 240   20:40   79.1    17    0.3   306      1.2   899.7    0.00       0    85.2
 240   20:50   77.7    17    0.8    51      2.7   899.7    0.00       0    85.2
 240   21:00   76.6    16    1.3    40      3.2   899.8    0.00       0    85.2
 240   21:10   76.2    16    1.6    32      3.1   899.8    0.00       0    85.2
 240   21:20   75.6    16    2.0    31      3.9   899.8    0.00       0    85.2
 240   21:30   75.1    16    2.0    40      3.8   899.9    0.00       0    85.2
 240   21:40   74.4    17    2.0    19      3.3   899.9    0.00       0    85.2
 240   21:50   73.7    17    2.1    12      3.1   899.9    0.00       0    85.2
 240   22:00   73.7    17    2.4    11      4.2   899.9    0.00       0    85.2
 240   22:10   72.7    18    1.7    47      3.1   899.8    0.00       0    85.2
 240   22:20   71.9    18    1.6    56      3.1   899.7    0.00       0    85.2
 240   22:30   72.0    18    1.5    44      3.5   899.7    0.00       0    85.2
 240   22:40   71.8    18    1.6    31      3.8   899.7    0.00       0    85.2
 240   22:50   75.0    16    3.1    25      6.2   899.7    0.00       0    85.2
 240   23:00   75.2    16    3.8     0      7.2   899.7    0.00       0    85.2
 240   23:10   73.3    18    3.3     7      6.8   899.7    0.00       0    85.2
 240   23:20   72.8    18    3.3   354      6.6   899.7    0.00       0    85.2
 240   23:30   72.4    18    4.2   355      6.4   899.7    0.00       0    85.2
 240   23:40   75.1    16    4.0    18      7.2   899.8    0.00       0    85.2
 240   23:50   75.5    16    4.3    11      7.1   899.8    0.00       0    85.2
 241    0:00   73.3    18    5.6   353      8.0   899.8    0.00       0    85.2
 241    0:10   71.6    18    5.6   359      8.0   899.8    0.00       0    85.1
 241    0:20   70.6    19    4.5     3      8.6   899.9    0.00       0    85.1
 241    0:30   70.5    19    6.3   359      8.8   899.8    0.00       0    85.1
 241    0:40   70.8    19    5.7   353      9.3   899.7    0.00       0    85.1
 241    0:50   71.3    19    5.2   359      8.2   899.6    0.00       0    85.1
 241    1:00   68.9    21    6.3   353      9.1   899.6    0.00       0    85.0
 241    1:10   68.0    21    7.0   357      9.3   899.6    0.00       0    85.0
 241    1:20   68.2    21    6.9   357      9.3   899.6    0.00       0    85.0
 241    1:30   69.6    20    5.2   358      8.5   899.5    0.00       0    85.0
 241    1:40   71.0    19    4.4   351      6.8   899.5    0.00       0    84.9
 241    1:50   70.0    20    4.2   346      6.5   899.5    0.00       0    84.9
 241    2:00   68.9    21    4.9   345      8.1   899.5    0.00       0    84.9
 241    2:10   67.6    22    5.8   350      8.5   899.5    0.00       0    84.8
 241    2:20   68.1    21    5.7   350      7.8   899.4    0.00       0    84.8
 241    2:30   68.5    21    5.9   349      8.6   899.5    0.00       0    84.8
 241    2:40   67.9    22    7.4   356      9.9   899.5    0.00       0    84.7
 241    2:50   66.9    22    7.5   357     10.9   899.5    0.00       0    84.7
 241    3:00   67.5    22    6.8   356     10.2   899.4    0.00       0    84.7
 241    3:10   66.4    23    5.9   355      9.0   899.4    0.00       0    84.6
 241    3:20   65.6    23    6.4   355      8.8   899.4    0.00       0    84.6
 241    3:30   66.0    23    7.1   355      9.6   899.4    0.00       0    84.6
 241    3:40   66.3    23    7.0   356      9.5   899.4    0.00       0    84.5
 241    3:50   67.1    22    5.7   357      9.6   899.5    0.00       0    84.5
 241    4:00   66.7    22    6.2   357      9.6   899.5    0.00       0    84.4
 241    4:10   65.4    24    7.6     0     11.3   899.5    0.00       0    84.4
 241    4:20   65.3    24    5.3     4      9.1   899.5    0.00       0    84.3
 241    4:30   65.8    24    5.0     5      8.9   899.5    0.00       0    84.3
 241    4:40   65.2    24    7.7   355     10.7   899.6    0.00       0    84.2
 241    4:50   64.1    25    7.3   353     11.1   899.6    0.00       0    84.2
 241    5:00   64.2    25    6.6   356      9.5   899.7    0.00       0    84.1
 241    5:10   64.0    25    6.1     1      9.6   899.8    0.00       0    84.0
 241    5:20   64.3    25    6.9   357      9.9   899.9    0.00       3    84.0
 241    5:30   65.9    24    5.9   355      9.5   899.9    0.00       6    83.9
 241    5:40   65.8    24    7.8   354     11.4   900.0    0.00      10    83.9
 241    5:50   64.6    25    7.1   358     11.2   900.2    0.00      12    83.8
 241    6:00   66.0    24    6.1   358     10.9   900.3    0.00      16    83.8
 241    6:10   66.7    24    5.1     4      8.0   900.3    0.00      37    83.7
 241    6:20   67.6    23    5.3     7      9.9   900.4    0.00      23    83.6
 241    6:30   69.2    22    4.2    38      8.8   900.5    0.00      28    83.6
 241    6:40   70.2    21    3.9    29      8.8   900.5    0.00      29    83.5
 241    6:50   71.1    20    4.0    39      8.3   900.6    0.00      31    83.4
 241    7:00   72.6    19    3.9    58      9.7   900.6    0.00      28    83.4
 241    7:10   74.0    18    3.2    54      9.6   900.6    0.00      37    83.3
 241    7:20   75.0    18    3.9    59      9.2   900.6    0.00      58    83.2
 241    7:30   76.0    17    2.5    58      7.3   900.6    0.00     117    83.2
 241    7:40   77.4    16    2.7    52      7.2   900.6    0.00     127    83.1
 241    7:50   78.4    16    2.9    69      6.4   900.6    0.00     381    83.1
 241    8:00   79.7    15    2.2    71      5.6   900.6    0.00     407    83.0
 241    8:10   81.2    15    1.4    49      3.9   900.5    0.00     434    83.0
 241    8:20   82.5    14    1.8    31      4.0   900.5    0.00     467    82.9
 241    8:30   83.2    13    2.1     2      6.1   900.5    0.00     422    82.8
 241    8:40   84.4    13    1.5   354      4.0   900.5    0.00     505    82.7
 241    8:50   86.3    12    0.9   114      2.8   900.4    0.00     527    82.7
 241    9:00   87.9    12    1.0   240      2.1   900.4    0.00     554    82.6
 241    9:10   88.6    12    1.0   161      3.1   900.4    0.00     527    82.5
 241    9:20   88.9    12    1.8   214      5.6   900.5    0.00     587    82.5
 241    9:30   89.3    11    1.4   226      5.4   900.4    0.00     609    82.5
 241    9:40   90.4    11    3.6   233      6.4   900.3    0.00     626    82.4
 241    9:50   89.7    11    3.3   233      6.9   900.1    0.00     643    82.3
 241   10:00   91.1    11    3.2   194      7.5   900.0    0.00     661    82.3
 241   10:10   91.3    11    5.2   219     10.4   900.0    0.00     691    82.3
 241   10:20   90.8    11    5.9   223     11.2   899.9    0.00     573    82.2

Return to Beatty, Nevada graphs page.


Western Regional Climate Center,wrcc@dri.edu